sensor_id;sensor_type;location;lat;lon;timestamp;P1;durP1;ratioP1;P2;durP2;ratioP2
60722;SDS011;46574;52.818;6.516;2023-04-03T00:01:55;1.42;;;1.13;;
60722;SDS011;46574;52.818;6.516;2023-04-03T00:04:21;1.67;;;1.25;;
60722;SDS011;46574;52.818;6.516;2023-04-03T00:06:46;1.80;;;1.27;;
60722;SDS011;46574;52.818;6.516;2023-04-03T00:09:12;1.95;;;1.10;;
60722;SDS011;46574;52.818;6.516;2023-04-03T00:11:38;2.35;;;1.35;;
60722;SDS011;46574;52.818;6.516;2023-04-03T00:14:03;2.55;;;1.00;;
60722;SDS011;46574;52.818;6.516;2023-04-03T00:16:29;2.65;;;1.10;;
60722;SDS011;46574;52.818;6.516;2023-04-03T00:18:55;1.95;;;1.00;;
60722;SDS011;46574;52.818;6.516;2023-04-03T00:21:20;1.25;;;1.00;;
60722;SDS011;46574;52.818;6.516;2023-04-03T00:23:46;1.08;;;0.95;;
60722;SDS011;46574;52.818;6.516;2023-04-03T00:26:12;1.40;;;1.00;;
60722;SDS011;46574;52.818;6.516;2023-04-03T00:28:37;2.13;;;1.23;;
60722;SDS011;46574;52.818;6.516;2023-04-03T00:31:03;2.25;;;1.00;;
60722;SDS011;46574;52.818;6.516;2023-04-03T00:33:28;4.60;;;1.80;;
60722;SDS011;46574;52.818;6.516;2023-04-03T00:35:54;2.08;;;1.10;;
60722;SDS011;46574;52.818;6.516;2023-04-03T00:38:20;2.90;;;1.00;;
60722;SDS011;46574;52.818;6.516;2023-04-03T00:40:46;2.92;;;1.10;;
60722;SDS011;46574;52.818;6.516;2023-04-03T00:43:15;1.50;;;1.10;;
60722;SDS011;46574;52.818;6.516;2023-04-03T00:45:46;1.45;;;1.00;;
60722;SDS011;46574;52.818;6.516;2023-04-03T00:48:15;2.55;;;1.40;;
60722;SDS011;46574;52.818;6.516;2023-04-03T00:51:34;1.80;;;1.10;;
60722;SDS011;46574;52.818;6.516;2023-04-03T00:54:00;2.35;;;1.25;;
60722;SDS011;46574;52.818;6.516;2023-04-03T00:56:30;2.95;;;1.20;;
60722;SDS011;46574;52.818;6.516;2023-04-03T00:58:58;1.80;;;1.35;;
60722;SDS011;46574;52.818;6.516;2023-04-03T01:01:33;2.70;;;1.50;;
60722;SDS011;46574;52.818;6.516;2023-04-03T01:04:00;3.17;;;1.10;;
60722;SDS011;46574;52.818;6.516;2023-04-03T01:06:28;2.25;;;1.10;;
60722;SDS011;46574;52.818;6.516;2023-04-03T01:08:57;2.17;;;1.30;;
60722;SDS011;46574;52.818;6.516;2023-04-03T01:11:25;1.90;;;1.10;;
60722;SDS011;46574;52.818;6.516;2023-04-03T01:13:51;1.77;;;1.10;;
60722;SDS011;46574;52.818;6.516;2023-04-03T01:16:17;2.78;;;1.30;;
60722;SDS011;46574;52.818;6.516;2023-04-03T01:18:43;2.03;;;1.10;;
60722;SDS011;46574;52.818;6.516;2023-04-03T01:26:38;1.30;;;1.02;;
60722;SDS011;46574;52.818;6.516;2023-04-03T01:29:04;2.60;;;1.40;;
60722;SDS011;46574;52.818;6.516;2023-04-03T01:34:11;2.33;;;1.48;;
60722;SDS011;46574;52.818;6.516;2023-04-03T01:36:36;2.10;;;1.30;;
60722;SDS011;46574;52.818;6.516;2023-04-03T01:39:02;2.65;;;1.25;;
60722;SDS011;46574;52.818;6.516;2023-04-03T01:41:28;2.85;;;1.40;;
60722;SDS011;46574;52.818;6.516;2023-04-03T01:43:54;2.90;;;1.83;;
60722;SDS011;46574;52.818;6.516;2023-04-03T01:46:20;1.48;;;1.33;;
60722;SDS011;46574;52.818;6.516;2023-04-03T01:48:46;2.65;;;1.52;;
60722;SDS011;46574;52.818;6.516;2023-04-03T01:51:12;2.42;;;1.30;;
60722;SDS011;46574;52.818;6.516;2023-04-03T01:53:37;2.55;;;1.20;;
60722;SDS011;46574;52.818;6.516;2023-04-03T01:56:03;3.90;;;1.60;;
60722;SDS011;46574;52.818;6.516;2023-04-03T01:58:29;1.90;;;1.13;;
60722;SDS011;46574;52.818;6.516;2023-04-03T02:00:55;3.00;;;1.27;;
60722;SDS011;46574;52.818;6.516;2023-04-03T02:03:21;1.92;;;1.40;;
60722;SDS011;46574;52.818;6.516;2023-04-03T02:05:47;1.60;;;1.20;;
60722;SDS011;46574;52.818;6.516;2023-04-03T02:08:12;1.50;;;1.38;;
60722;SDS011;46574;52.818;6.516;2023-04-03T02:10:38;2.72;;;1.67;;
60722;SDS011;46574;52.818;6.516;2023-04-03T02:13:05;2.97;;;1.48;;
60722;SDS011;46574;52.818;6.516;2023-04-03T02:15:30;5.28;;;1.58;;
60722;SDS011;46574;52.818;6.516;2023-04-03T02:17:56;3.42;;;1.38;;
60722;SDS011;46574;52.818;6.516;2023-04-03T02:20:22;2.95;;;1.52;;
60722;SDS011;46574;52.818;6.516;2023-04-03T02:22:48;4.10;;;1.73;;
60722;SDS011;46574;52.818;6.516;2023-04-03T02:25:13;2.05;;;1.67;;
60722;SDS011;46574;52.818;6.516;2023-04-03T02:27:39;3.97;;;1.50;;
60722;SDS011;46574;52.818;6.516;2023-04-03T02:30:05;3.97;;;1.58;;
60722;SDS011;46574;52.818;6.516;2023-04-03T02:32:31;2.38;;;1.40;;
60722;SDS011;46574;52.818;6.516;2023-04-03T02:34:57;3.58;;;1.63;;
60722;SDS011;46574;52.818;6.516;2023-04-03T02:37:23;2.70;;;1.60;;
60722;SDS011;46574;52.818;6.516;2023-04-03T02:39:49;5.10;;;1.70;;
60722;SDS011;46574;52.818;6.516;2023-04-03T02:42:15;4.55;;;1.55;;
60722;SDS011;46574;52.818;6.516;2023-04-03T02:44:40;3.55;;;1.88;;
60722;SDS011;46574;52.818;6.516;2023-04-03T02:47:06;2.22;;;1.55;;
60722;SDS011;46574;52.818;6.516;2023-04-03T02:49:32;2.25;;;1.60;;
60722;SDS011;46574;52.818;6.516;2023-04-03T02:51:57;2.13;;;1.60;;
60722;SDS011;46574;52.818;6.516;2023-04-03T02:54:23;3.95;;;1.83;;
60722;SDS011;46574;52.818;6.516;2023-04-03T02:56:52;2.80;;;1.50;;
60722;SDS011;46574;52.818;6.516;2023-04-03T02:59:18;2.20;;;1.80;;
60722;SDS011;46574;52.818;6.516;2023-04-03T03:01:44;2.55;;;1.60;;
60722;SDS011;46574;52.818;6.516;2023-04-03T03:04:10;2.38;;;1.63;;
60722;SDS011;46574;52.818;6.516;2023-04-03T03:06:35;3.20;;;1.90;;
60722;SDS011;46574;52.818;6.516;2023-04-03T03:09:01;3.90;;;1.85;;
60722;SDS011;46574;52.818;6.516;2023-04-03T03:11:28;3.35;;;1.75;;
60722;SDS011;46574;52.818;6.516;2023-04-03T03:13:55;3.65;;;2.13;;
60722;SDS011;46574;52.818;6.516;2023-04-03T03:16:21;2.08;;;1.80;;
60722;SDS011;46574;52.818;6.516;2023-04-03T03:18:46;2.70;;;1.63;;
60722;SDS011;46574;52.818;6.516;2023-04-03T03:21:12;3.10;;;1.80;;
60722;SDS011;46574;52.818;6.516;2023-04-03T03:23:38;2.53;;;1.92;;
60722;SDS011;46574;52.818;6.516;2023-04-03T03:26:05;4.35;;;1.90;;
60722;SDS011;46574;52.818;6.516;2023-04-03T03:28:33;2.05;;;1.70;;
60722;SDS011;46574;52.818;6.516;2023-04-03T03:30:59;2.83;;;1.80;;
60722;SDS011;46574;52.818;6.516;2023-04-03T03:33:25;4.05;;;2.10;;
60722;SDS011;46574;52.818;6.516;2023-04-03T03:35:52;2.70;;;1.70;;
60722;SDS011;46574;52.818;6.516;2023-04-03T03:38:18;3.75;;;2.03;;
60722;SDS011;46574;52.818;6.516;2023-04-03T03:40:44;3.20;;;2.20;;
60722;SDS011;46574;52.818;6.516;2023-04-03T03:43:11;2.47;;;1.92;;
60722;SDS011;46574;52.818;6.516;2023-04-03T03:45:37;1.80;;;1.40;;
60722;SDS011;46574;52.818;6.516;2023-04-03T03:48:03;2.92;;;1.92;;
60722;SDS011;46574;52.818;6.516;2023-04-03T03:50:28;3.53;;;2.17;;
60722;SDS011;46574;52.818;6.516;2023-04-03T03:52:55;4.07;;;2.00;;
60722;SDS011;46574;52.818;6.516;2023-04-03T03:55:20;3.00;;;2.00;;
60722;SDS011;46574;52.818;6.516;2023-04-03T03:57:46;3.70;;;1.90;;
60722;SDS011;46574;52.818;6.516;2023-04-03T04:00:12;3.22;;;2.08;;
60722;SDS011;46574;52.818;6.516;2023-04-03T04:02:38;3.40;;;1.90;;
60722;SDS011;46574;52.818;6.516;2023-04-03T04:05:04;3.13;;;2.00;;
60722;SDS011;46574;52.818;6.516;2023-04-03T04:07:30;4.38;;;1.98;;
60722;SDS011;46574;52.818;6.516;2023-04-03T04:09:55;2.67;;;1.90;;
60722;SDS011;46574;52.818;6.516;2023-04-03T04:12:21;4.57;;;2.08;;
60722;SDS011;46574;52.818;6.516;2023-04-03T04:14:47;4.35;;;2.10;;
60722;SDS011;46574;52.818;6.516;2023-04-03T04:17:13;3.47;;;2.35;;
60722;SDS011;46574;52.818;6.516;2023-04-03T04:19:39;4.07;;;2.30;;
60722;SDS011;46574;52.818;6.516;2023-04-03T04:22:04;2.50;;;1.98;;
60722;SDS011;46574;52.818;6.516;2023-04-03T04:24:30;4.07;;;2.33;;
60722;SDS011;46574;52.818;6.516;2023-04-03T04:26:56;3.00;;;2.55;;
60722;SDS011;46574;52.818;6.516;2023-04-03T04:29:21;3.40;;;1.88;;
60722;SDS011;46574;52.818;6.516;2023-04-03T04:31:47;3.75;;;2.10;;
60722;SDS011;46574;52.818;6.516;2023-04-03T04:34:13;3.30;;;2.40;;
60722;SDS011;46574;52.818;6.516;2023-04-03T04:36:39;5.28;;;2.40;;
60722;SDS011;46574;52.818;6.516;2023-04-03T04:39:05;6.35;;;2.83;;
60722;SDS011;46574;52.818;6.516;2023-04-03T04:41:31;5.90;;;2.22;;
60722;SDS011;46574;52.818;6.516;2023-04-03T04:43:57;3.92;;;2.42;;
60722;SDS011;46574;52.818;6.516;2023-04-03T04:46:23;3.90;;;2.40;;
60722;SDS011;46574;52.818;6.516;2023-04-03T04:48:48;4.80;;;2.72;;
60722;SDS011;46574;52.818;6.516;2023-04-03T04:51:14;4.82;;;2.60;;
60722;SDS011;46574;52.818;6.516;2023-04-03T04:53:41;3.22;;;2.00;;
60722;SDS011;46574;52.818;6.516;2023-04-03T04:56:07;4.07;;;2.35;;
60722;SDS011;46574;52.818;6.516;2023-04-03T04:58:33;3.65;;;2.35;;
60722;SDS011;46574;52.818;6.516;2023-04-03T05:01:00;3.38;;;2.47;;
60722;SDS011;46574;52.818;6.516;2023-04-03T05:03:26;5.15;;;2.53;;
60722;SDS011;46574;52.818;6.516;2023-04-03T05:05:52;4.53;;;2.58;;
60722;SDS011;46574;52.818;6.516;2023-04-03T05:08:17;5.30;;;2.90;;
60722;SDS011;46574;52.818;6.516;2023-04-03T05:10:44;3.88;;;2.33;;
60722;SDS011;46574;52.818;6.516;2023-04-03T05:13:10;4.32;;;2.58;;
60722;SDS011;46574;52.818;6.516;2023-04-03T05:15:39;4.80;;;2.85;;
60722;SDS011;46574;52.818;6.516;2023-04-03T05:18:05;3.78;;;2.67;;
60722;SDS011;46574;52.818;6.516;2023-04-03T05:20:31;4.78;;;2.97;;
60722;SDS011;46574;52.818;6.516;2023-04-03T05:22:58;5.15;;;3.03;;
60722;SDS011;46574;52.818;6.516;2023-04-03T05:25:24;4.60;;;2.78;;
60722;SDS011;46574;52.818;6.516;2023-04-03T05:27:50;3.80;;;2.78;;
60722;SDS011;46574;52.818;6.516;2023-04-03T05:30:16;3.97;;;2.20;;
60722;SDS011;46574;52.818;6.516;2023-04-03T05:32:42;4.72;;;3.30;;
60722;SDS011;46574;52.818;6.516;2023-04-03T05:35:08;6.80;;;2.88;;
60722;SDS011;46574;52.818;6.516;2023-04-03T05:37:34;3.55;;;2.40;;
60722;SDS011;46574;52.818;6.516;2023-04-03T05:40:00;3.60;;;2.38;;
60722;SDS011;46574;52.818;6.516;2023-04-03T05:42:27;6.07;;;3.33;;
60722;SDS011;46574;52.818;6.516;2023-04-03T05:44:53;3.88;;;2.60;;
60722;SDS011;46574;52.818;6.516;2023-04-03T05:47:18;7.70;;;3.33;;
60722;SDS011;46574;52.818;6.516;2023-04-03T05:49:44;4.03;;;2.40;;
60722;SDS011;46574;52.818;6.516;2023-04-03T05:52:33;5.43;;;2.97;;
60722;SDS011;46574;52.818;6.516;2023-04-03T05:55:02;6.32;;;3.03;;
60722;SDS011;46574;52.818;6.516;2023-04-03T05:57:28;5.43;;;2.97;;
60722;SDS011;46574;52.818;6.516;2023-04-03T05:59:53;4.43;;;2.78;;
60722;SDS011;46574;52.818;6.516;2023-04-03T06:02:19;6.85;;;3.45;;
60722;SDS011;46574;52.818;6.516;2023-04-03T06:04:46;3.60;;;2.67;;
60722;SDS011;46574;52.818;6.516;2023-04-03T06:07:19;6.75;;;3.28;;
60722;SDS011;46574;52.818;6.516;2023-04-03T06:09:47;4.07;;;2.80;;
60722;SDS011;46574;52.818;6.516;2023-04-03T06:12:14;5.38;;;3.20;;
60722;SDS011;46574;52.818;6.516;2023-04-03T06:14:40;5.63;;;3.60;;
60722;SDS011;46574;52.818;6.516;2023-04-03T06:17:06;5.88;;;3.35;;
60722;SDS011;46574;52.818;6.516;2023-04-03T06:19:33;4.32;;;2.78;;
60722;SDS011;46574;52.818;6.516;2023-04-03T06:21:59;4.40;;;3.10;;
60722;SDS011;46574;52.818;6.516;2023-04-03T06:24:25;6.97;;;2.90;;
60722;SDS011;46574;52.818;6.516;2023-04-03T06:26:51;4.88;;;3.00;;
60722;SDS011;46574;52.818;6.516;2023-04-03T06:29:17;5.38;;;3.00;;
60722;SDS011;46574;52.818;6.516;2023-04-03T06:31:44;4.93;;;3.13;;
60722;SDS011;46574;52.818;6.516;2023-04-03T06:34:11;5.22;;;2.90;;
60722;SDS011;46574;52.818;6.516;2023-04-03T06:36:37;4.43;;;2.67;;
60722;SDS011;46574;52.818;6.516;2023-04-03T06:39:03;5.38;;;3.03;;
60722;SDS011;46574;52.818;6.516;2023-04-03T06:41:29;5.10;;;3.22;;
60722;SDS011;46574;52.818;6.516;2023-04-03T06:43:55;5.43;;;2.78;;
60722;SDS011;46574;52.818;6.516;2023-04-03T06:46:23;5.13;;;2.85;;
60722;SDS011;46574;52.818;6.516;2023-04-03T06:48:50;5.88;;;3.08;;
60722;SDS011;46574;52.818;6.516;2023-04-03T06:51:26;4.93;;;2.92;;
60722;SDS011;46574;52.818;6.516;2023-04-03T06:53:54;5.90;;;3.00;;
60722;SDS011;46574;52.818;6.516;2023-04-03T06:56:22;5.97;;;3.35;;
60722;SDS011;46574;52.818;6.516;2023-04-03T06:58:48;5.60;;;2.97;;
60722;SDS011;46574;52.818;6.516;2023-04-03T07:01:15;5.72;;;3.40;;
60722;SDS011;46574;52.818;6.516;2023-04-03T07:03:41;3.97;;;2.70;;
60722;SDS011;46574;52.818;6.516;2023-04-03T07:06:09;8.15;;;3.63;;
60722;SDS011;46574;52.818;6.516;2023-04-03T07:08:36;4.70;;;2.70;;
60722;SDS011;46574;52.818;6.516;2023-04-03T07:11:02;4.30;;;3.20;;
60722;SDS011;46574;52.818;6.516;2023-04-03T07:13:28;5.63;;;2.47;;
60722;SDS011;46574;52.818;6.516;2023-04-03T07:15:54;4.38;;;2.80;;
60722;SDS011;46574;52.818;6.516;2023-04-03T07:18:20;5.43;;;2.80;;
60722;SDS011;46574;52.818;6.516;2023-04-03T07:20:46;4.38;;;2.70;;
60722;SDS011;46574;52.818;6.516;2023-04-03T07:23:12;4.07;;;2.67;;
60722;SDS011;46574;52.818;6.516;2023-04-03T07:25:42;7.20;;;3.17;;
60722;SDS011;46574;52.818;6.516;2023-04-03T07:28:12;5.63;;;2.88;;
60722;SDS011;46574;52.818;6.516;2023-04-03T07:30:45;5.43;;;2.40;;
60722;SDS011;46574;52.818;6.516;2023-04-03T07:33:14;3.25;;;2.50;;
60722;SDS011;46574;52.818;6.516;2023-04-03T07:35:41;6.05;;;2.22;;
60722;SDS011;46574;52.818;6.516;2023-04-03T07:38:07;5.68;;;2.50;;
60722;SDS011;46574;52.818;6.516;2023-04-03T07:40:33;6.55;;;2.63;;
60722;SDS011;46574;52.818;6.516;2023-04-03T07:43:00;3.90;;;2.17;;
60722;SDS011;46574;52.818;6.516;2023-04-03T07:45:25;2.85;;;2.20;;
60722;SDS011;46574;52.818;6.516;2023-04-03T07:47:52;4.68;;;2.70;;
60722;SDS011;46574;52.818;6.516;2023-04-03T07:50:18;3.15;;;1.92;;
60722;SDS011;46574;52.818;6.516;2023-04-03T07:52:44;2.90;;;1.80;;
60722;SDS011;46574;52.818;6.516;2023-04-03T07:55:10;3.28;;;1.92;;
60722;SDS011;46574;52.818;6.516;2023-04-03T07:57:36;3.65;;;1.90;;
60722;SDS011;46574;52.818;6.516;2023-04-03T08:00:05;3.13;;;1.70;;
60722;SDS011;46574;52.818;6.516;2023-04-03T08:02:31;3.20;;;1.85;;
60722;SDS011;46574;52.818;6.516;2023-04-03T08:04:57;2.40;;;1.60;;
60722;SDS011;46574;52.818;6.516;2023-04-03T08:07:23;1.80;;;1.60;;
60722;SDS011;46574;52.818;6.516;2023-04-03T08:09:50;2.88;;;1.70;;
60722;SDS011;46574;52.818;6.516;2023-04-03T08:12:16;3.45;;;2.00;;
60722;SDS011;46574;52.818;6.516;2023-04-03T08:14:42;4.18;;;1.80;;
60722;SDS011;46574;52.818;6.516;2023-04-03T08:17:08;2.55;;;1.48;;
60722;SDS011;46574;52.818;6.516;2023-04-03T08:19:36;3.28;;;1.50;;
60722;SDS011;46574;52.818;6.516;2023-04-03T08:22:02;3.40;;;1.70;;
60722;SDS011;46574;52.818;6.516;2023-04-03T08:24:29;2.85;;;1.40;;
60722;SDS011;46574;52.818;6.516;2023-04-03T08:26:56;3.22;;;1.63;;
60722;SDS011;46574;52.818;6.516;2023-04-03T08:29:22;2.47;;;1.55;;
60722;SDS011;46574;52.818;6.516;2023-04-03T08:31:48;3.15;;;1.65;;
60722;SDS011;46574;52.818;6.516;2023-04-03T08:34:15;2.53;;;1.65;;
60722;SDS011;46574;52.818;6.516;2023-04-03T08:36:41;2.50;;;1.55;;
60722;SDS011;46574;52.818;6.516;2023-04-03T08:39:06;3.22;;;1.63;;
60722;SDS011;46574;52.818;6.516;2023-04-03T08:41:36;2.25;;;1.30;;
60722;SDS011;46574;52.818;6.516;2023-04-03T08:44:15;2.25;;;1.45;;
60722;SDS011;46574;52.818;6.516;2023-04-03T08:52:52;2.92;;;1.40;;
60722;SDS011;46574;52.818;6.516;2023-04-03T08:55:25;2.17;;;1.13;;
60722;SDS011;46574;52.818;6.516;2023-04-03T08:58:12;2.25;;;1.23;;
60722;SDS011;46574;52.818;6.516;2023-04-03T09:00:51;2.40;;;1.08;;
60722;SDS011;46574;52.818;6.516;2023-04-03T09:03:20;2.95;;;1.10;;
60722;SDS011;46574;52.818;6.516;2023-04-03T09:05:52;3.45;;;1.23;;
60722;SDS011;46574;52.818;6.516;2023-04-03T09:11:19;2.40;;;1.10;;
60722;SDS011;46574;52.818;6.516;2023-04-03T09:14:04;1.45;;;0.88;;
60722;SDS011;46574;52.818;6.516;2023-04-03T09:22:08;0.93;;;0.90;;
60722;SDS011;46574;52.818;6.516;2023-04-03T09:24:41;1.98;;;0.90;;
60722;SDS011;46574;52.818;6.516;2023-04-03T09:27:10;2.38;;;1.20;;
60722;SDS011;46574;52.818;6.516;2023-04-03T09:29:39;1.25;;;0.93;;
60722;SDS011;46574;52.818;6.516;2023-04-03T09:32:27;2.05;;;0.98;;
60722;SDS011;46574;52.818;6.516;2023-04-03T09:34:56;1.30;;;0.93;;
60722;SDS011;46574;52.818;6.516;2023-04-03T09:37:34;2.88;;;1.10;;
60722;SDS011;46574;52.818;6.516;2023-04-03T09:40:04;3.13;;;2.10;;
60722;SDS011;46574;52.818;6.516;2023-04-03T09:45:23;3.20;;;1.33;;
60722;SDS011;46574;52.818;6.516;2023-04-03T09:53:26;1.42;;;0.73;;
60722;SDS011;46574;52.818;6.516;2023-04-03T09:55:55;3.85;;;1.20;;
60722;SDS011;46574;52.818;6.516;2023-04-03T09:58:32;0.93;;;0.80;;
60722;SDS011;46574;52.818;6.516;2023-04-03T10:01:02;1.85;;;0.90;;
60722;SDS011;46574;52.818;6.516;2023-04-03T10:03:33;2.38;;;0.98;;
60722;SDS011;46574;52.818;6.516;2023-04-03T10:06:01;2.30;;;0.90;;
60722;SDS011;46574;52.818;6.516;2023-04-03T10:08:29;2.17;;;1.00;;
60722;SDS011;46574;52.818;6.516;2023-04-03T10:11:08;2.75;;;1.20;;
60722;SDS011;46574;52.818;6.516;2023-04-03T10:14:01;2.30;;;0.90;;
60722;SDS011;46574;52.818;6.516;2023-04-03T10:16:35;2.25;;;1.00;;
60722;SDS011;46574;52.818;6.516;2023-04-03T10:19:04;1.90;;;1.10;;
60722;SDS011;46574;52.818;6.516;2023-04-03T10:22:16;3.30;;;1.10;;
60722;SDS011;46574;52.818;6.516;2023-04-03T10:24:55;3.05;;;1.20;;
60722;SDS011;46574;52.818;6.516;2023-04-03T10:27:46;1.85;;;1.10;;
60722;SDS011;46574;52.818;6.516;2023-04-03T10:34:00;2.42;;;1.10;;
60722;SDS011;46574;52.818;6.516;2023-04-03T10:36:39;1.45;;;0.93;;
60722;SDS011;46574;52.818;6.516;2023-04-03T10:39:30;1.80;;;1.00;;
60722;SDS011;46574;52.818;6.516;2023-04-03T10:47:34;1.90;;;1.27;;
60722;SDS011;46574;52.818;6.516;2023-04-03T10:53:03;1.98;;;0.90;;
60722;SDS011;46574;52.818;6.516;2023-04-03T10:55:37;1.55;;;0.95;;
60722;SDS011;46574;52.818;6.516;2023-04-03T10:58:18;1.50;;;1.08;;
60722;SDS011;46574;52.818;6.516;2023-04-03T11:00:54;1.63;;;0.77;;
60722;SDS011;46574;52.818;6.516;2023-04-03T11:03:33;1.60;;;0.90;;
60722;SDS011;46574;52.818;6.516;2023-04-03T11:06:05;2.13;;;1.00;;
60722;SDS011;46574;52.818;6.516;2023-04-03T11:08:36;1.98;;;1.20;;
60722;SDS011;46574;52.818;6.516;2023-04-03T11:11:11;1.65;;;1.23;;
60722;SDS011;46574;52.818;6.516;2023-04-03T11:13:43;1.48;;;0.90;;
60722;SDS011;46574;52.818;6.516;2023-04-03T11:16:16;2.00;;;1.02;;
60722;SDS011;46574;52.818;6.516;2023-04-03T11:18:51;2.38;;;1.25;;
60722;SDS011;46574;52.818;6.516;2023-04-03T11:24:15;1.48;;;1.20;;
60722;SDS011;46574;52.818;6.516;2023-04-03T11:26:46;3.05;;;1.20;;
60722;SDS011;46574;52.818;6.516;2023-04-03T11:29:18;3.53;;;1.02;;
60722;SDS011;46574;52.818;6.516;2023-04-03T11:34:52;3.08;;;2.03;;
60722;SDS011;46574;52.818;6.516;2023-04-03T11:40:07;1.95;;;0.93;;
60722;SDS011;46574;52.818;6.516;2023-04-03T11:42:46;3.17;;;1.08;;
60722;SDS011;46574;52.818;6.516;2023-04-03T11:45:24;1.65;;;0.98;;
60722;SDS011;46574;52.818;6.516;2023-04-03T11:47:54;1.17;;;0.90;;
60722;SDS011;46574;52.818;6.516;2023-04-03T12:18:55;1.55;;;0.98;;
60722;SDS011;46574;52.818;6.516;2023-04-03T12:34:49;2.22;;;1.17;;
60722;SDS011;46574;52.818;6.516;2023-04-03T12:37:39;3.22;;;1.27;;
60722;SDS011;46574;52.818;6.516;2023-04-03T12:40:28;1.38;;;1.20;;
60722;SDS011;46574;52.818;6.516;2023-04-03T12:43:20;1.92;;;1.00;;
60722;SDS011;46574;52.818;6.516;2023-04-03T12:51:14;1.70;;;1.10;;
60722;SDS011;46574;52.818;6.516;2023-04-03T12:53:43;1.90;;;1.40;;
60722;SDS011;46574;52.818;6.516;2023-04-03T12:56:20;2.20;;;1.08;;
60722;SDS011;46574;52.818;6.516;2023-04-03T12:58:52;1.55;;;1.20;;
60722;SDS011;46574;52.818;6.516;2023-04-03T13:01:24;2.40;;;1.00;;
60722;SDS011;46574;52.818;6.516;2023-04-03T13:03:55;1.35;;;1.05;;
60722;SDS011;46574;52.818;6.516;2023-04-03T13:06:41;2.75;;;1.35;;
60722;SDS011;46574;52.818;6.516;2023-04-03T13:11:51;3.42;;;1.60;;
60722;SDS011;46574;52.818;6.516;2023-04-03T13:14:27;2.88;;;1.50;;
60722;SDS011;46574;52.818;6.516;2023-04-03T13:16:58;2.65;;;1.40;;
60722;SDS011;46574;52.818;6.516;2023-04-03T13:19:29;2.70;;;1.27;;
60722;SDS011;46574;52.818;6.516;2023-04-03T13:22:05;1.27;;;1.00;;
60722;SDS011;46574;52.818;6.516;2023-04-03T13:24:55;2.00;;;1.20;;
60722;SDS011;46574;52.818;6.516;2023-04-03T13:27:23;2.60;;;1.27;;
60722;SDS011;46574;52.818;6.516;2023-04-03T13:29:51;5.00;;;1.50;;
60722;SDS011;46574;52.818;6.516;2023-04-03T13:32:20;2.60;;;1.27;;
60722;SDS011;46574;52.818;6.516;2023-04-03T13:34:48;2.75;;;1.55;;
60722;SDS011;46574;52.818;6.516;2023-04-03T13:37:25;1.20;;;1.10;;
60722;SDS011;46574;52.818;6.516;2023-04-03T13:39:57;3.05;;;1.20;;
60722;SDS011;46574;52.818;6.516;2023-04-03T13:42:27;1.67;;;1.02;;
60722;SDS011;46574;52.818;6.516;2023-04-03T13:45:16;2.83;;;1.25;;
60722;SDS011;46574;52.818;6.516;2023-04-03T13:47:53;1.40;;;1.30;;
60722;SDS011;46574;52.818;6.516;2023-04-03T13:53:51;2.70;;;1.40;;
60722;SDS011;46574;52.818;6.516;2023-04-03T13:56:35;1.90;;;1.00;;
60722;SDS011;46574;52.818;6.516;2023-04-03T13:59:20;2.72;;;1.27;;
60722;SDS011;46574;52.818;6.516;2023-04-03T14:04:32;2.70;;;1.40;;
60722;SDS011;46574;52.818;6.516;2023-04-03T14:09:36;2.72;;;1.33;;
60722;SDS011;46574;52.818;6.516;2023-04-03T14:12:04;1.40;;;1.30;;
60722;SDS011;46574;52.818;6.516;2023-04-03T14:14:33;3.08;;;1.38;;
60722;SDS011;46574;52.818;6.516;2023-04-03T14:17:02;2.30;;;1.50;;
60722;SDS011;46574;52.818;6.516;2023-04-03T14:19:35;2.80;;;1.67;;
60722;SDS011;46574;52.818;6.516;2023-04-03T14:22:07;2.08;;;1.67;;
60722;SDS011;46574;52.818;6.516;2023-04-03T14:24:38;2.10;;;1.35;;
60722;SDS011;46574;52.818;6.516;2023-04-03T14:27:05;2.15;;;1.27;;
60722;SDS011;46574;52.818;6.516;2023-04-03T14:29:41;2.38;;;1.40;;
60722;SDS011;46574;52.818;6.516;2023-04-03T14:32:06;3.33;;;1.40;;
60722;SDS011;46574;52.818;6.516;2023-04-03T14:34:32;2.60;;;1.40;;
60722;SDS011;46574;52.818;6.516;2023-04-03T14:36:58;2.70;;;1.38;;
60722;SDS011;46574;52.818;6.516;2023-04-03T14:39:23;2.03;;;1.38;;
60722;SDS011;46574;52.818;6.516;2023-04-03T14:41:49;3.47;;;1.70;;
60722;SDS011;46574;52.818;6.516;2023-04-03T14:44:15;2.22;;;2.00;;
60722;SDS011;46574;52.818;6.516;2023-04-03T14:46:42;2.35;;;1.60;;
60722;SDS011;46574;52.818;6.516;2023-04-03T14:49:19;1.63;;;1.40;;
60722;SDS011;46574;52.818;6.516;2023-04-03T14:51:46;2.17;;;1.50;;
60722;SDS011;46574;52.818;6.516;2023-04-03T14:54:16;2.10;;;1.45;;
60722;SDS011;46574;52.818;6.516;2023-04-03T14:56:46;2.75;;;1.73;;
60722;SDS011;46574;52.818;6.516;2023-04-03T14:59:13;2.58;;;1.30;;
60722;SDS011;46574;52.818;6.516;2023-04-03T15:01:39;1.67;;;1.50;;
60722;SDS011;46574;52.818;6.516;2023-04-03T15:04:10;2.13;;;1.58;;
60722;SDS011;46574;52.818;6.516;2023-04-03T15:06:37;3.05;;;1.80;;
60722;SDS011;46574;52.818;6.516;2023-04-03T15:09:03;2.47;;;1.63;;
60722;SDS011;46574;52.818;6.516;2023-04-03T15:11:29;1.88;;;1.33;;
60722;SDS011;46574;52.818;6.516;2023-04-03T15:13:55;2.67;;;1.67;;
60722;SDS011;46574;52.818;6.516;2023-04-03T15:16:20;2.90;;;1.40;;
60722;SDS011;46574;52.818;6.516;2023-04-03T15:18:47;2.92;;;1.90;;
60722;SDS011;46574;52.818;6.516;2023-04-03T15:21:12;2.47;;;1.38;;
60722;SDS011;46574;52.818;6.516;2023-04-03T15:23:38;2.03;;;1.42;;
60722;SDS011;46574;52.818;6.516;2023-04-03T15:26:04;2.15;;;1.30;;
60722;SDS011;46574;52.818;6.516;2023-04-03T15:28:32;3.45;;;1.67;;
60722;SDS011;46574;52.818;6.516;2023-04-03T15:31:00;2.03;;;1.42;;
60722;SDS011;46574;52.818;6.516;2023-04-03T15:33:27;2.72;;;1.55;;
60722;SDS011;46574;52.818;6.516;2023-04-03T15:35:53;2.28;;;1.20;;
60722;SDS011;46574;52.818;6.516;2023-04-03T15:38:19;2.25;;;1.38;;
60722;SDS011;46574;52.818;6.516;2023-04-03T15:40:45;1.85;;;1.08;;
60722;SDS011;46574;52.818;6.516;2023-04-03T15:43:14;1.90;;;1.23;;
60722;SDS011;46574;52.818;6.516;2023-04-03T15:45:40;1.80;;;1.20;;
60722;SDS011;46574;52.818;6.516;2023-04-03T15:48:07;1.42;;;1.30;;
60722;SDS011;46574;52.818;6.516;2023-04-03T15:50:33;3.65;;;1.38;;
60722;SDS011;46574;52.818;6.516;2023-04-03T15:53:00;2.58;;;1.30;;
60722;SDS011;46574;52.818;6.516;2023-04-03T15:55:27;1.73;;;1.23;;
60722;SDS011;46574;52.818;6.516;2023-04-03T15:57:55;1.80;;;1.60;;
60722;SDS011;46574;52.818;6.516;2023-04-03T16:00:21;2.13;;;1.20;;
60722;SDS011;46574;52.818;6.516;2023-04-03T16:02:48;2.10;;;1.30;;
60722;SDS011;46574;52.818;6.516;2023-04-03T16:05:17;1.30;;;1.20;;
60722;SDS011;46574;52.818;6.516;2023-04-03T16:07:44;2.10;;;1.27;;
60722;SDS011;46574;52.818;6.516;2023-04-03T16:10:11;1.70;;;1.17;;
60722;SDS011;46574;52.818;6.516;2023-04-03T16:12:38;2.97;;;1.30;;
60722;SDS011;46574;52.818;6.516;2023-04-03T16:15:04;3.00;;;1.40;;
60722;SDS011;46574;52.818;6.516;2023-04-03T16:17:31;2.78;;;1.63;;
60722;SDS011;46574;52.818;6.516;2023-04-03T16:19:57;2.08;;;1.50;;
60722;SDS011;46574;52.818;6.516;2023-04-03T16:22:24;2.25;;;1.35;;
60722;SDS011;46574;52.818;6.516;2023-04-03T16:24:52;2.38;;;1.20;;
60722;SDS011;46574;52.818;6.516;2023-04-03T16:27:18;5.20;;;1.63;;
60722;SDS011;46574;52.818;6.516;2023-04-03T16:29:44;3.72;;;1.25;;
60722;SDS011;46574;52.818;6.516;2023-04-03T16:32:10;1.30;;;1.20;;
60722;SDS011;46574;52.818;6.516;2023-04-03T16:34:37;2.65;;;1.40;;
60722;SDS011;46574;52.818;6.516;2023-04-03T16:37:02;2.33;;;1.50;;
60722;SDS011;46574;52.818;6.516;2023-04-03T16:39:28;2.35;;;1.60;;
60722;SDS011;46574;52.818;6.516;2023-04-03T16:41:54;1.65;;;1.20;;
60722;SDS011;46574;52.818;6.516;2023-04-03T16:44:20;2.47;;;1.40;;
60722;SDS011;46574;52.818;6.516;2023-04-03T16:46:45;1.42;;;1.10;;
60722;SDS011;46574;52.818;6.516;2023-04-03T16:49:11;3.50;;;1.25;;